• Join FlightAware (Why Join?)
  • Login
  • US Flag 
01:01AM EDT


 

Airport Tracker/Info


-or-


 

Live Flight TrackerFlight Track Log ✈ DAL2028 ✈ 07-Jun-2013 ✈ KMCO - KDTW

Flight Track Log - Related Links

Times and Time Zones

All times are in EDT time to prevent confusion due to time zone crossing. See the DAL2028 flight status page for this flight to view local times or setup timezone preferences in your user account.

Time Position Orientation Groundspeed Altitude Reporting Facility
EDT Latitude Longitude Course Direction KTS MPH feet Rate Location/Type
04:25PM 28.4000 -81.3000 North 165 190 1,000  Level Orlando TRACON
04:26PM 28.3333 -81.2333 139° Southeast 271 312 4,400 2,760 Climbing Orlando TRACON
04:27PM 28.3500 -81.1500 77° East 287 330 7,800 3,180 Climbing Orlando TRACON
04:28PM 28.8968 -81.3627 350° North  Level FlightAware Approximate
04:28PM 28.4167 -81.1167 24° Northeast 289 333 10,500  Level Orlando TRACON
04:29PM 29.0178 -81.3702 350° North  Level FlightAware Approximate
04:30PM 29.1384 -81.3833 North  Level FlightAware Approximate
04:30PM 28.5369 -81.1653 340° North 316 364 13,500  Level Jacksonville Center
04:31PM 28.6356 -81.2036 341° North 344 396 16,200 2,640 Climbing Jacksonville Center
04:32PM 28.7361 -81.2422 341° North 365 420 18,800 2,280 Climbing Jacksonville Center
04:33PM 28.8389 -81.2856 340° North 385 443 20,800 1,980 Climbing Jacksonville Center
04:34PM 28.9481 -81.3314 340° North 398 458 22,800 1,920 Climbing Jacksonville Center
04:35PM 29.0572 -81.3842 337° Northwest 415 478 24,700 1,800 Climbing Jacksonville Center
04:36PM 29.1706 -81.4325 340° North 435 501 26,400 1,560 Climbing Jacksonville Center
04:37PM 29.2775 -81.4689 343° North 435 501 27,900 1,500 Climbing Jacksonville Center
04:38PM 29.4069 -81.4861 353° North 441 507 29,400 1,560 Climbing Jacksonville Center
04:39PM 29.5386 -81.5033 354° North 463 533 31,100 1,500 Climbing Jacksonville Center
04:40PM 29.6683 -81.5231 352° North 469 540 32,400 1,380 Climbing Jacksonville Center
04:41PM 29.8064 -81.5425 353° North 480 552 33,900 1,500 Climbing Jacksonville Center
04:42PM 29.9381 -81.5622 353° North 480 552 35,500 1,320 Climbing Jacksonville Center
04:43PM 30.0739 -81.5819 353° North 485 558 36,600 720 Climbing Jacksonville Center
04:44PM 30.2267 -81.6017 354° North 490 564 37,000 180 Climbing Jacksonville Center
04:45PM 30.3667 -81.6214 353° North 496 571 37,000  Level Jacksonville Center
04:46PM 30.5067 -81.6461 351° North 503 579 37,000  Level Jacksonville Center
04:47PM 30.6511 -81.6683 352° North 508 585 37,000  Level Jacksonville Center
04:48PM 30.7892 -81.6931 351° North 508 585 37,000 420 Level Jacksonville Center
04:49PM 30.9311 -81.6986 358° North 503 579 37,900 960 Climbing Jacksonville Center
04:50PM 31.0708 -81.6797 North 498 573 39,000 540 Climbing Jacksonville Center
04:51PM 31.2086 -81.6878 357° North 492 566 39,000  Level Jacksonville Center
04:52PM 31.3469 -81.7178 350° North 492 566 39,000  Level Jacksonville Center
04:53PM 31.4722 -81.7258 357° North 498 573 39,000  Level Jacksonville Center
04:54PM 31.6308 -81.7214 North 519 597 39,000  Level Jacksonville Center
04:55PM 31.7747 -81.7147 North 510 587 39,000  Level Jacksonville Center
04:56PM 31.9042 -81.7131 North 515 593 39,000  Level Jacksonville Center
04:57PM 32.0586 -81.7061 North 511 588 39,000  Level Jacksonville Center
04:58PM 32.2028 -81.7017 North 505 581 39,000  Level Jacksonville Center
04:59PM 32.3278 -81.6978 North 510 587 39,000  Level Jacksonville Center
05:00PM 32.4844 -81.6956 North 504 580 39,000  Level Jacksonville Center
05:01PM 32.6242 -81.6889 North 504 580 39,000  Level Jacksonville Center
05:02PM 32.7661 -81.6819 North 498 573 39,000  Level Jacksonville Center
05:03PM 32.9058 -81.6753 North 498 573 39,000  Level Jacksonville Center
05:04PM 33.0458 -81.6733 North 498 573 39,000  Level Jacksonville Center
05:05PM 33.1897 -81.6664 North 498 573 39,000  Level Jacksonville Center
05:06PM 33.3275 -81.6619 North 498 573 39,000  Level Jacksonville Center
05:07PM 33.4694 -81.6550 North 498 573 39,000 240 Level Jacksonville Center
05:08PM 33.6092 -81.6506 North 498 573 39,500 600 Climbing Jacksonville Center
05:10PM 33.9047 -81.6536 360° North 486 559 41,000 420 Climbing Atlanta Center
05:11PM 34.0425 -81.6622 357° North 486 559 41,000  Level Atlanta Center
05:12PM 34.1806 -81.6708 357° North 493 567 41,000  Level Atlanta Center
05:13PM 34.3222 -81.6619 North 498 573 41,000  Level Atlanta Center
05:14PM 34.4597 -81.6431 North 503 579 41,000  Level Atlanta Center
05:15PM 34.6011 -81.6214 North 503 579 41,000  Level Atlanta Center
05:16PM 34.7575 -81.6092 North 498 573 41,000  Level Atlanta Center
05:17PM 34.8969 -81.5975 North 498 573 41,000  Level Atlanta Center
05:18PM 35.0219 -81.5886 North 498 573 41,000  Level Atlanta Center
05:19PM 35.1617 -81.5819 North 498 573 41,000  Level Atlanta Center
05:20PM 35.3036 -81.5831 360° North 498 573 41,000  Level Atlanta Center
05:21PM 35.4433 -81.5889 358° North 498 573 41,000  Level Atlanta Center
05:22PM 35.5942 -81.6075 354° North 498 573 41,000  Level Atlanta Center
05:23PM 35.7342 -81.6236 355° North 498 573 41,000  Level Atlanta Center
05:24PM 35.8742 -81.6400 355° North 504 580 41,000  Level Atlanta Center
05:25PM 36.0100 -81.6567 354° North 497 572 41,000  Level Atlanta Center
05:26PM 36.1458 -81.6706 355° North 497 572 41,000  Level Atlanta Center
05:27PM 36.2758 -81.6925 352° North 479 551 41,000  Level Atlanta Center
05:28PM 36.3947 -81.7072 354° North 479 551 41,000  Level Atlanta Center
05:29PM 36.5433 -81.7261 354° North 489 563 41,000  Level Atlanta Center
05:30PM 36.6792 -81.7428 354° North 483 556 41,000  Level Atlanta Center
05:32PM 36.9986 -81.7850 354° North 495 570 41,000  Level Indianapolis Center
05:33PM 37.1386 -81.8050 354° North 505 581 41,000  Level Indianapolis Center
05:34PM 37.3014 -81.8267 354° North 504 580 41,000  Level Indianapolis Center
05:35PM 37.4417 -81.8453 354° North 505 581 41,000  Level Indianapolis Center
05:36PM 37.5822 -81.8656 353° North 508 585 41,000  Level Indianapolis Center
05:37PM 37.7233 -81.8831 354° North 510 587 41,000  Level Indianapolis Center
05:39PM 37.8806 -81.9044 354° North 513 590 41,000  Level Indianapolis Center
05:40PM 38.0236 -81.8967 North 513 590 41,000  Level Indianapolis Center
05:41PM 38.1656 -81.8650 10° North 516 594 41,000  Level Indianapolis Center
05:42PM 38.3086 -81.8328 10° North 518 596 41,000  Level Indianapolis Center
05:43PM 38.4522 -81.8036 North 519 597 41,000  Level Indianapolis Center
05:44PM 38.5983 -81.8181 356° North 520 598 41,000  Level Indianapolis Center
05:45PM 38.7392 -81.8631 346° North 514 592 41,000  Level Indianapolis Center
05:46PM 38.9044 -81.9069 348° North 499 574 41,000  Level Indianapolis Center
05:47PM 39.0433 -81.9167 357° North 497 572 41,000  Level Indianapolis Center
05:48PM 39.1839 -81.9256 357° North 502 578 41,000  Level Indianapolis Center
05:49PM 39.3250 -81.9328 358° North 506 582 41,000  Level Indianapolis Center
05:50PM 39.4667 -81.9422 357° North 508 585 41,000 -120 Level Indianapolis Center
05:51PM 39.6081 -81.9517 357° North 507 583 40,800 -780 Descending Indianapolis Center
05:52PM 39.7703 -81.9617 357° North 502 578 39,400 -1,380 Descending Indianapolis Center
05:53PM 39.9100 -81.9706 357° North 499 574 38,000 -1,320 Descending Indianapolis Center
05:54PM 40.0519 -81.9786 358° North 504 580 36,700 -1,080 Descending Indianapolis Center
05:55PM 40.1928 -81.9894 357° North 503 579 35,800 -1,320 Descending Indianapolis Center
05:56PM 40.3303 -81.9978 357° North 506 582 34,000 -2,400 Descending Indianapolis Center
05:57PM 40.5033 -82.0100 357° North 528 608 30,800 -1,920 Descending Indianapolis Center
05:58PM 40.6489 -82.0294 354° North 520 598 30,000 -480 Descending Indianapolis Center
05:59PM 40.7478 -82.0494 351° North 523 602 30,000  Level Cleveland Center
06:00PM 40.8914 -82.0581 357° North 523 602 30,000 -720 Level Cleveland Center
06:01PM 41.0314 -82.0364 North 512 589 28,600 -1,320 Descending Cleveland Center
06:02PM 41.1694 -82.0092 North 507 583 27,400 -1,620 Descending Cleveland Center
06:03PM 41.3008 -81.9983 North 492 566 25,400 -1,740 Descending Cleveland Center
06:04PM 41.3917 -82.0639 332° Northwest 420 483 24,000 -780 Descending Cleveland Center
06:05PM 41.4547 -82.1872 304° West 380 437 23,900 -1,200 Descending Cleveland Center
06:06PM 41.5172 -82.3275 301° West 386 444 21,700 -2,340 Descending Cleveland Center
06:07PM 41.5736 -82.4483 302° West 395 455 19,300 -2,580 Descending Cleveland Center
06:07PM 41.6058 -82.5186 302° West 385 443 17,700 -2,640 Descending Cleveland Center
06:08PM 41.6281 -82.5694 300° West 392 451 16,600 -2,760 Descending Cleveland Center
06:08PM 41.6603 -82.6344 304° West 365 420 14,900 -2,700 Descending Cleveland Center
06:09PM 41.6761 -82.6711 300° West 373 429 13,900 -2,520 Descending Cleveland Center
06:10PM 41.7161 -82.7614 301° West 348 400 12,100 -1,800 Descending Cleveland Center
06:10PM 41.7264 -82.7783 309° West 362 417 12,100 -720 Level Cleveland Center
06:11PM 41.7769 -82.8469 315° West 290 334 11,400 -840 Descending Cleveland Center
06:11PM 41.7853 -82.8528 332° Northwest 326 375 11,300 -1,140 Descending Cleveland Center
06:12PM 41.8339 -82.9186 315° West 272 313 10,300 -1,320 Descending Cleveland Center
06:12PM 41.8358 -82.9269 287° West 291 335 10,000 -1,260 Descending Cleveland Center
06:13PM 41.8633 -83.0117 294° West 267 307 9,000 -900 Descending Cleveland Center
06:14PM 41.8906 -83.1019 292° West 253 291 8,300 -660 Descending Cleveland Center
06:15PM 41.9142 -83.1697 295° West 205 236 7,700 -960 Descending Cleveland Center
06:16PM 41.9356 -83.2378 293° West 199 229 6,600 -960 Descending Cleveland Center
06:17PM 41.9317 -83.3075 266° West 204 235 5,800 -840 Descending Cleveland Center
06:18PM 41.8867 -83.3586 220° Southwest 204 235 5,000 -600 Descending Cleveland Center
06:19PM 41.8725 -83.4247 254° West 193 222 4,700 -540 Descending Cleveland Center
06:20PM 41.8833 -83.5006 281° West 200 230 4,000 -360 Descending Cleveland Center
06:21PM 41.9200 -83.5331 327° Northwest 173 199 4,000  Level Cleveland Center
06:22PM 41.9683 -83.5183 13° North 173 199 4,000  Level Cleveland Center
06:23PM 42.0106 -83.4897 27° Northeast 168 193 4,000  Level Cleveland Center
06:24PM 42.0511 -83.4581 30° Northeast 170 196 4,000 -600 Level Cleveland Center
06:25PM 42.0978 -83.4264 27° Northeast 173 199 2,900 -1,140 Descending Cleveland Center